createdAt,value
2023-02-17T00:01:36.734Z,136.13
2023-02-17T00:04:05.135Z,135.90
2023-02-17T00:06:33.327Z,130.40
2023-02-17T00:09:01.931Z,123.13
2023-02-17T00:11:30.408Z,125.43
2023-02-17T00:14:00.578Z,138.73
2023-02-17T00:16:29.520Z,126.73
2023-02-17T00:19:00.545Z,124.47
2023-02-17T00:21:30.538Z,129.13
2023-02-17T00:23:59.590Z,123.77
2023-02-17T00:26:27.770Z,122.63
2023-02-17T00:28:55.943Z,120.43
2023-02-17T00:31:25.546Z,119.73
2023-02-17T00:33:56.595Z,116.63
2023-02-17T00:36:25.584Z,122.37
2023-02-17T00:38:55.497Z,124.60
2023-02-17T00:41:24.543Z,124.57
2023-02-17T00:43:52.822Z,109.53
2023-02-17T00:46:21.136Z,116.70
2023-02-17T00:48:50.747Z,120.77
2023-02-17T00:51:19.664Z,125.10
2023-02-17T00:53:47.946Z,120.20
2023-02-17T00:56:16.128Z,121.37
2023-02-17T00:58:44.417Z,122.97
2023-02-17T01:01:12.873Z,124.53
2023-02-17T01:03:42.175Z,118.53
2023-02-17T01:06:19.940Z,119.43
2023-02-17T01:08:48.043Z,121.50
2023-02-17T01:11:18.886Z,125.47
2023-02-17T01:13:47.315Z,124.27
2023-02-17T01:16:20.077Z,129.10
2023-02-17T01:18:48.208Z,114.70
2023-02-17T01:21:22.948Z,114.20
2023-02-17T01:23:51.492Z,112.87
2023-02-17T01:26:23.191Z,116.27
2023-02-17T01:28:52.471Z,121.03
2023-02-17T01:31:22.288Z,125.23
2023-02-17T01:33:51.226Z,119.17
2023-02-17T01:36:21.651Z,119.27
2023-02-17T01:38:50.192Z,112.23
2023-02-17T01:41:19.867Z,115.77
2023-02-17T01:44:10.130Z,123.57
2023-02-17T01:46:39.359Z,118.33
2023-02-17T01:49:18.608Z,114.97
2023-02-17T01:51:51.836Z,111.00
2023-02-17T01:54:23.521Z,114.53
2023-02-17T01:56:52.342Z,124.40
2023-02-17T01:59:22.625Z,111.47
2023-02-17T02:01:53.890Z,117.60
2023-02-17T02:04:25.499Z,115.97
2023-02-17T02:06:55.313Z,116.67
2023-02-17T02:09:28.485Z,118.77
2023-02-17T02:11:56.569Z,126.67
2023-02-17T02:14:24.903Z,113.63
2023-02-17T02:17:02.290Z,127.43
2023-02-17T02:19:59.006Z,126.90
2023-02-17T02:22:50.519Z,136.03
2023-02-17T02:25:47.157Z,126.60
2023-02-17T02:28:27.824Z,129.00
2023-02-17T02:31:23.139Z,125.47
2023-02-17T02:33:57.143Z,128.20
2023-02-17T02:36:30.710Z,121.40
2023-02-17T02:39:02.728Z,131.17
2023-02-17T02:41:35.406Z,130.93
2023-02-17T02:44:06.339Z,131.20
2023-02-17T02:46:34.436Z,127.57
2023-02-17T02:49:04.980Z,124.60
2023-02-17T02:51:45.614Z,132.87
2023-02-17T02:54:28.239Z,125.67
2023-02-17T02:57:14.724Z,123.90
2023-02-17T02:59:53.936Z,134.83
2023-02-17T03:02:30.590Z,130.13
2023-02-17T03:05:07.128Z,134.50
2023-02-17T03:07:39.467Z,140.13
2023-02-17T03:10:08.619Z,131.47
2023-02-17T03:12:39.142Z,133.23
2023-02-17T03:15:13.631Z,130.83
2023-02-17T03:17:41.711Z,134.77
2023-02-17T03:20:13.763Z,132.63
2023-02-17T03:22:45.834Z,125.97
2023-02-17T03:25:14.052Z,140.77
2023-02-17T03:27:42.314Z,127.10
2023-02-17T03:30:11.370Z,137.87
2023-02-17T03:32:39.527Z,139.57
2023-02-17T03:35:09.464Z,143.83
2023-02-17T03:37:39.163Z,130.37
2023-02-17T03:40:09.035Z,136.20
2023-02-17T03:42:37.286Z,143.17
2023-02-17T03:45:05.951Z,148.27
2023-02-17T03:47:34.110Z,143.60
2023-02-17T03:50:02.203Z,150.83
2023-02-17T03:52:30.270Z,155.97
2023-02-17T03:54:59.841Z,149.53
2023-02-17T03:57:27.991Z,149.23
2023-02-17T03:59:56.131Z,164.50
2023-02-17T04:02:24.217Z,148.60
2023-02-17T04:04:52.360Z,150.30
2023-02-17T04:07:20.467Z,148.43
2023-02-17T04:09:48.596Z,153.20
2023-02-17T04:12:18.226Z,144.57
2023-02-17T04:14:46.358Z,148.87
2023-02-17T04:17:14.524Z,150.77
2023-02-17T04:19:42.725Z,143.40
2023-02-17T04:22:10.839Z,147.93
2023-02-17T04:24:38.966Z,158.87
2023-02-17T04:27:07.236Z,147.60
2023-02-17T04:29:36.972Z,168.53
2023-02-17T04:32:05.522Z,144.37
2023-02-17T04:34:33.639Z,156.27
2023-02-17T04:37:01.794Z,155.33
2023-02-17T04:39:29.894Z,162.47
2023-02-17T04:41:57.994Z,159.07
2023-02-17T04:44:26.101Z,153.43
2023-02-17T04:46:55.640Z,146.80
2023-02-17T04:49:23.805Z,143.67
2023-02-17T04:51:52.030Z,157.80
2023-02-17T04:54:20.841Z,161.53
2023-02-17T04:56:49.033Z,165.73
2023-02-17T04:59:17.291Z,148.20
2023-02-17T05:01:45.461Z,164.17
2023-02-17T05:04:15.014Z,153.10
2023-02-17T05:06:43.136Z,162.57
2023-02-17T05:09:11.343Z,173.73
2023-02-17T05:11:39.485Z,165.50
2023-02-17T05:14:07.686Z,165.57
2023-02-17T05:16:35.797Z,168.20
2023-02-17T05:19:04.264Z,187.10
2023-02-17T05:21:33.913Z,176.90
2023-02-17T05:24:02.040Z,171.53
2023-02-17T05:26:30.273Z,178.80
2023-02-17T05:28:58.376Z,174.40
2023-02-17T05:31:26.608Z,167.80
2023-02-17T05:33:55.213Z,164.50
2023-02-17T05:36:23.426Z,156.90
2023-02-17T05:38:52.990Z,162.50
2023-02-17T05:41:21.624Z,158.63
2023-02-17T05:43:49.853Z,160.90
2023-02-17T05:46:18.102Z,173.60
2023-02-17T05:48:46.370Z,169.93
2023-02-17T05:51:17.201Z,161.93
2023-02-17T05:53:45.699Z,154.97
2023-02-17T05:56:15.272Z,163.13
2023-02-17T05:58:43.357Z,137.73
2023-02-17T06:01:12.181Z,150.27
2023-02-17T06:03:40.354Z,164.37
2023-02-17T06:06:09.120Z,163.60
2023-02-17T06:08:37.445Z,160.57
2023-02-17T06:11:05.924Z,152.73
2023-02-17T06:13:35.524Z,165.37
2023-02-17T06:16:03.837Z,156.93
2023-02-17T06:18:32.076Z,164.10
2023-02-17T06:21:00.484Z,142.73
2023-02-17T06:23:29.342Z,144.60
2023-02-17T06:25:57.523Z,134.33
2023-02-17T06:28:25.645Z,146.37
2023-02-17T06:30:55.177Z,128.87
2023-02-17T06:33:23.289Z,126.63
2023-02-17T06:35:52.019Z,135.23
2023-02-17T06:38:20.805Z,130.97
2023-02-17T06:40:49.386Z,128.13
2023-02-17T06:43:17.477Z,123.33
2023-02-17T06:45:45.693Z,125.53
2023-02-17T06:48:15.215Z,124.47
2023-02-17T06:50:43.410Z,123.87
2023-02-17T06:53:11.533Z,123.47
2023-02-17T06:55:39.759Z,118.80
2023-02-17T06:58:08.470Z,110.33
2023-02-17T07:00:36.694Z,105.37
2023-02-17T07:03:04.971Z,123.33
2023-02-17T07:05:36.277Z,117.67
2023-02-17T07:08:04.741Z,111.00
2023-02-17T07:10:33.491Z,108.27
2023-02-17T07:13:01.694Z,106.37
2023-02-17T07:15:29.907Z,98.50
2023-02-17T07:17:58.054Z,103.70
2023-02-17T07:20:26.186Z,101.13
2023-02-17T07:22:55.646Z,96.60
2023-02-17T07:25:23.754Z,95.90
2023-02-17T07:27:51.986Z,98.20
2023-02-17T07:30:20.364Z,95.63
2023-02-17T07:32:48.499Z,99.47
2023-02-17T07:35:16.734Z,93.70
2023-02-17T07:37:44.882Z,89.83
2023-02-17T07:40:14.862Z,87.37
2023-02-17T07:42:42.960Z,98.97
2023-02-17T07:45:11.154Z,89.33
2023-02-17T07:47:39.265Z,90.57
2023-02-17T07:50:08.844Z,84.63
2023-02-17T07:52:37.434Z,94.20
2023-02-17T07:55:06.107Z,84.83
2023-02-17T07:57:35.649Z,86.87
2023-02-17T08:00:04.235Z,92.20
2023-02-17T08:02:32.707Z,88.57
2023-02-17T08:05:00.817Z,83.87
2023-02-17T08:07:28.998Z,85.83
2023-02-17T08:10:14.510Z,87.13
2023-02-17T08:13:03.707Z,89.17
2023-02-17T08:15:34.967Z,87.40
2023-02-17T08:18:04.984Z,91.43
2023-02-17T08:20:35.235Z,82.67
2023-02-17T08:23:04.529Z,85.13
2023-02-17T08:25:34.135Z,83.27
2023-02-17T08:28:04.690Z,92.07
2023-02-17T08:30:32.919Z,93.50
2023-02-17T08:33:01.128Z,85.10
2023-02-17T08:35:29.678Z,82.97
2023-02-17T08:37:57.859Z,83.07
2023-02-17T08:40:26.346Z,82.30
2023-02-17T08:42:54.506Z,81.20
2023-02-17T08:45:24.020Z,88.07
2023-02-17T08:47:52.141Z,72.70
2023-02-17T08:50:21.007Z,73.40
2023-02-17T08:52:49.167Z,87.67
2023-02-17T08:55:19.050Z,74.00
2023-02-17T08:57:47.325Z,70.53
2023-02-17T09:00:17.091Z,71.00
2023-02-17T09:02:46.664Z,76.73
2023-02-17T09:05:15.954Z,75.83
2023-02-17T09:07:44.175Z,71.53
2023-02-17T09:10:13.433Z,75.70
2023-02-17T09:12:41.867Z,74.20
2023-02-17T09:15:10.944Z,74.17
2023-02-17T09:17:41.389Z,72.50
2023-02-17T09:20:23.833Z,73.73
2023-02-17T09:22:53.252Z,78.50
2023-02-17T09:25:22.599Z,74.90
2023-02-17T09:27:50.924Z,80.80
2023-02-17T09:30:19.280Z,80.63
2023-02-17T09:32:48.704Z,84.10
2023-02-17T09:35:19.731Z,87.80
2023-02-17T09:37:47.944Z,86.10
2023-02-17T09:40:19.871Z,89.53
2023-02-17T09:42:49.110Z,86.97
2023-02-17T09:45:22.059Z,100.30
2023-02-17T09:47:53.405Z,108.87
2023-02-17T09:50:27.667Z,118.70
2023-02-17T09:53:02.248Z,106.27
2023-02-17T09:55:34.303Z,107.63
2023-02-17T09:58:07.348Z,116.57
2023-02-17T10:00:39.594Z,126.20
2023-02-17T10:03:18.276Z,137.03
2023-02-17T10:05:54.412Z,126.40
2023-02-17T10:08:26.845Z,137.97
2023-02-17T10:11:01.977Z,146.13
2023-02-17T10:13:35.717Z,130.50
2023-02-17T10:16:10.821Z,132.80
2023-02-17T10:18:42.820Z,136.63
2023-02-17T10:21:19.509Z,129.32
2023-02-17T10:23:47.871Z,138.73
2023-02-17T10:26:25.656Z,121.97
2023-02-17T10:28:55.393Z,123.53
2023-02-17T10:31:39.977Z,107.83
2023-02-17T10:34:18.049Z,114.53
2023-02-17T10:36:58.097Z,112.47
2023-02-17T10:39:41.629Z,113.60
2023-02-17T10:42:15.606Z,120.17
2023-02-17T10:44:44.157Z,109.43
2023-02-17T10:47:12.694Z,110.97
2023-02-17T10:49:45.730Z,108.17
2023-02-17T10:52:18.136Z,98.00
2023-02-17T10:54:51.741Z,92.80
2023-02-17T10:57:22.130Z,101.27
2023-02-17T10:59:51.639Z,95.87
2023-02-17T11:02:23.248Z,93.37
2023-02-17T11:04:54.969Z,82.53
2023-02-17T11:07:33.700Z,86.80
2023-02-17T11:10:03.853Z,96.97
2023-02-17T11:12:40.336Z,93.93
2023-02-17T11:15:18.439Z,87.00
2023-02-17T11:17:47.647Z,91.10
2023-02-17T11:20:34.712Z,87.80
2023-02-17T11:23:22.622Z,91.13
2023-02-17T11:26:00.873Z,95.83
2023-02-17T11:28:29.166Z,96.90
2023-02-17T11:31:02.633Z,89.37
2023-02-17T11:33:33.793Z,83.80
2023-02-17T11:36:03.016Z,87.63
2023-02-17T11:38:43.477Z,84.10
2023-02-17T11:41:13.853Z,83.40
2023-02-17T11:43:53.291Z,92.23
2023-02-17T11:46:36.756Z,91.57
2023-02-17T11:49:34.861Z,85.63
2023-02-17T11:52:13.622Z,95.77
2023-02-17T11:54:56.611Z,93.57
2023-02-17T11:57:37.998Z,97.47
2023-02-17T12:00:17.391Z,94.43
2023-02-17T12:03:13.833Z,97.20
2023-02-17T12:05:59.778Z,96.80
2023-02-17T12:08:39.258Z,91.40
2023-02-17T12:11:20.968Z,102.93
2023-02-17T12:13:59.733Z,96.43
2023-02-17T12:16:41.284Z,104.30
2023-02-17T12:19:32.553Z,88.13
2023-02-17T12:22:08.872Z,97.07
2023-02-17T12:24:46.954Z,90.97
2023-02-17T12:27:28.347Z,98.60
2023-02-17T12:30:12.539Z,102.30
2023-02-17T12:32:57.681Z,99.13
2023-02-17T12:35:28.219Z,93.60
2023-02-17T12:38:01.987Z,95.27
2023-02-17T12:40:37.594Z,99.97
2023-02-17T12:43:22.998Z,96.73
2023-02-17T12:45:53.597Z,91.57
2023-02-17T12:48:29.455Z,98.13
2023-02-17T12:51:04.014Z,93.20
2023-02-17T12:53:42.180Z,98.67
2023-02-17T12:56:46.685Z,99.80
2023-02-17T12:59:18.981Z,102.77
2023-02-17T13:01:55.616Z,95.13
2023-02-17T13:04:26.676Z,105.23
2023-02-17T13:07:03.750Z,97.87
2023-02-17T13:09:38.597Z,103.20
2023-02-17T13:12:31.037Z,97.43
2023-02-17T13:15:02.161Z,103.43
2023-02-17T13:17:40.887Z,96.97
2023-02-17T13:20:45.676Z,95.20
2023-02-17T13:23:26.667Z,89.13
2023-02-17T13:26:36.394Z,104.27
2023-02-17T13:29:36.610Z,89.70
2023-02-17T13:32:13.347Z,88.13
2023-02-17T13:34:44.448Z,99.13
2023-02-17T13:37:28.243Z,99.00
2023-02-17T13:39:56.552Z,100.97
2023-02-17T13:42:36.526Z,93.10
2023-02-17T13:45:15.360Z,88.43
2023-02-17T13:47:46.227Z,97.23
2023-02-17T13:50:33.756Z,98.67
2023-02-17T13:53:03.315Z,92.40
2023-02-17T13:55:31.587Z,102.90
2023-02-17T13:58:01.115Z,109.13
2023-02-17T14:00:31.084Z,93.57
2023-02-17T14:03:15.156Z,103.73
2023-02-17T14:05:46.093Z,91.27
2023-02-17T14:08:19.418Z,94.63
2023-02-17T14:10:48.003Z,105.87
2023-02-17T14:13:16.419Z,92.33
2023-02-17T14:15:53.415Z,99.27
2023-02-17T14:18:36.181Z,108.07
2023-02-17T14:21:08.313Z,106.03
2023-02-17T14:23:48.344Z,100.90
2023-02-17T14:26:29.472Z,108.47
2023-02-17T14:28:59.228Z,103.83
2023-02-17T14:31:27.874Z,101.93
2023-02-17T14:34:00.824Z,109.57
2023-02-17T14:36:36.534Z,111.63
2023-02-17T14:39:06.865Z,113.93
2023-02-17T14:41:35.358Z,113.03
2023-02-17T14:44:03.458Z,105.13
2023-02-17T14:46:40.645Z,114.20
2023-02-17T14:49:10.230Z,125.40
2023-02-17T14:51:39.477Z,112.97
2023-02-17T14:54:14.189Z,120.03
2023-02-17T14:56:44.742Z,112.40
2023-02-17T14:59:14.336Z,113.37
2023-02-17T15:01:42.505Z,114.13
2023-02-17T15:04:12.061Z,109.90
2023-02-17T15:06:43.417Z,111.30
2023-02-17T15:09:14.306Z,109.23
2023-02-17T15:11:45.670Z,105.83
2023-02-17T15:14:15.877Z,111.60
2023-02-17T15:16:44.147Z,107.97
2023-02-17T15:19:14.917Z,117.30
2023-02-17T15:21:47.462Z,105.60
2023-02-17T15:24:17.790Z,107.70
2023-02-17T15:26:45.938Z,103.77
2023-02-17T15:29:18.428Z,99.20
2023-02-17T15:31:47.418Z,100.07
2023-02-17T15:34:18.813Z,104.77
2023-02-17T15:36:47.556Z,99.53
2023-02-17T15:39:18.067Z,103.43
2023-02-17T15:41:47.827Z,95.73
2023-02-17T15:44:19.051Z,99.40
2023-02-17T15:46:48.838Z,100.27
2023-02-17T15:49:18.440Z,98.10
2023-02-17T15:51:46.658Z,104.30
2023-02-17T15:54:19.091Z,99.93
2023-02-17T15:56:50.046Z,87.20
2023-02-17T15:59:20.616Z,92.27
2023-02-17T16:01:48.857Z,91.83
2023-02-17T16:04:18.777Z,88.13
2023-02-17T16:06:47.011Z,98.17
2023-02-17T16:09:15.535Z,90.60
2023-02-17T16:11:49.809Z,94.33
2023-02-17T16:14:25.905Z,85.87
2023-02-17T16:16:54.570Z,94.33
2023-02-17T16:19:24.214Z,86.93
2023-02-17T16:21:54.749Z,88.93
2023-02-17T16:24:26.224Z,87.77
2023-02-17T16:26:54.433Z,76.57
2023-02-17T16:29:26.246Z,88.97
2023-02-17T16:31:55.082Z,80.13
2023-02-17T16:34:32.328Z,84.83
2023-02-17T16:37:03.524Z,83.53
2023-02-17T16:39:31.973Z,89.33
2023-02-17T16:42:00.123Z,81.53
2023-02-17T16:44:28.257Z,81.47
2023-02-17T16:46:59.521Z,78.83
2023-02-17T16:49:33.044Z,80.40
2023-02-17T16:52:01.564Z,75.97
2023-02-17T16:54:29.777Z,69.73
2023-02-17T16:56:59.389Z,77.70
2023-02-17T16:59:27.992Z,73.47
2023-02-17T17:01:56.077Z,73.70
2023-02-17T17:04:24.583Z,74.40
2023-02-17T17:06:54.617Z,73.17
2023-02-17T17:09:24.868Z,69.47
2023-02-17T17:11:53.035Z,71.27
2023-02-17T17:14:21.909Z,70.47
2023-02-17T17:16:58.589Z,65.27
2023-02-17T17:19:26.936Z,70.07
2023-02-17T17:21:56.384Z,63.03
2023-02-17T17:24:24.498Z,66.57
2023-02-17T17:26:52.636Z,67.03
2023-02-17T17:29:21.235Z,64.10
2023-02-17T17:31:49.576Z,62.30
2023-02-17T17:34:17.768Z,62.50
2023-02-17T17:36:47.551Z,59.77
2023-02-17T17:39:18.774Z,58.13
2023-02-17T17:41:47.585Z,54.47
2023-02-17T17:44:15.771Z,58.90
2023-02-17T17:46:44.025Z,55.70
2023-02-17T17:49:15.197Z,57.40
2023-02-17T17:51:43.478Z,48.93
2023-02-17T17:54:11.849Z,49.77
2023-02-17T17:56:43.275Z,53.03
2023-02-17T17:59:12.477Z,52.20
2023-02-17T18:01:40.650Z,51.67
2023-02-17T18:04:09.400Z,51.00
2023-02-17T18:06:41.733Z,55.37
2023-02-17T18:09:25.843Z,52.13
2023-02-17T18:12:02.706Z,50.97
2023-02-17T18:14:31.976Z,51.83
2023-02-17T18:17:00.634Z,50.43
2023-02-17T18:19:29.959Z,43.03
2023-02-17T18:21:58.224Z,45.77
2023-02-17T18:24:26.362Z,46.30
2023-02-17T18:26:54.598Z,43.83
2023-02-17T18:29:24.112Z,40.80
2023-02-17T18:31:52.893Z,37.57
2023-02-17T18:34:21.196Z,41.17
2023-02-17T18:36:49.396Z,39.17
2023-02-17T18:39:17.773Z,47.77
2023-02-17T18:41:45.915Z,47.00
2023-02-17T18:44:14.075Z,40.23
2023-02-17T18:46:43.739Z,41.53
2023-02-17T18:49:11.933Z,38.17
2023-02-17T18:51:40.024Z,38.87
2023-02-17T18:54:11.028Z,39.40
2023-02-17T18:56:39.717Z,40.53
2023-02-17T18:59:08.229Z,41.43
2023-02-17T19:01:39.469Z,41.07
2023-02-17T19:04:11.812Z,39.83
2023-02-17T19:06:40.538Z,44.60
2023-02-17T19:09:08.940Z,43.57
2023-02-17T19:11:40.364Z,40.80
2023-02-17T19:14:08.475Z,42.30
2023-02-17T19:16:36.699Z,44.10
2023-02-17T19:19:09.176Z,40.67
2023-02-17T19:21:37.276Z,39.10
2023-02-17T19:24:05.748Z,43.07
2023-02-17T19:26:34.168Z,42.00
2023-02-17T19:29:02.289Z,44.20
2023-02-17T19:31:30.724Z,45.17
2023-02-17T19:33:58.982Z,42.67
2023-02-17T19:36:30.763Z,49.70
2023-02-17T19:38:59.381Z,51.30
2023-02-17T19:41:27.493Z,52.37
2023-02-17T19:43:56.073Z,57.60
2023-02-17T19:46:25.894Z,54.97
2023-02-17T19:48:54.335Z,53.17
2023-02-17T19:51:25.156Z,60.77
2023-02-17T19:53:54.864Z,59.70
2023-02-17T19:56:26.890Z,65.83
2023-02-17T19:58:55.592Z,62.60
2023-02-17T20:01:25.194Z,62.93
2023-02-17T20:03:55.335Z,56.50
2023-02-17T20:06:26.120Z,59.03
2023-02-17T20:08:57.979Z,60.50
2023-02-17T20:11:26.994Z,65.50
2023-02-17T20:13:55.761Z,61.53
2023-02-17T20:16:23.956Z,60.93
2023-02-17T20:18:52.506Z,61.47
2023-02-17T20:21:22.940Z,58.77
2023-02-17T20:23:51.444Z,50.10
2023-02-17T20:26:27.395Z,56.87
2023-02-17T20:28:56.699Z,50.23
2023-02-17T20:31:25.091Z,49.33
2023-02-17T20:33:53.794Z,54.40
2023-02-17T20:36:22.277Z,52.03
2023-02-17T20:38:51.243Z,53.73
2023-02-17T20:41:24.741Z,47.10
2023-02-17T20:43:53.536Z,48.70
2023-02-17T20:46:25.224Z,46.90
2023-02-17T20:48:53.994Z,50.10
2023-02-17T20:51:22.348Z,44.90
2023-02-17T20:53:51.069Z,47.73
2023-02-17T20:56:24.072Z,46.40
2023-02-17T20:58:53.310Z,44.50
2023-02-17T21:01:21.869Z,43.23
2023-02-17T21:03:50.651Z,43.20
2023-02-17T21:06:23.334Z,42.53
2023-02-17T21:08:53.198Z,36.73
2023-02-17T21:11:23.424Z,34.57
2023-02-17T21:13:51.688Z,35.40
2023-02-17T21:16:22.535Z,32.87
2023-02-17T21:18:50.666Z,31.43
2023-02-17T21:21:19.478Z,31.63
2023-02-17T21:23:48.099Z,33.90
2023-02-17T21:26:17.189Z,31.23
2023-02-17T21:28:47.613Z,34.20
2023-02-17T21:31:16.663Z,27.63
2023-02-17T21:33:45.314Z,29.47
2023-02-17T21:36:15.056Z,30.50
2023-02-17T21:38:43.677Z,26.20
2023-02-17T21:41:13.595Z,24.67
2023-02-17T21:43:59.285Z,23.93
2023-02-17T21:46:30.216Z,19.80
2023-02-17T21:48:59.596Z,14.03
2023-02-17T21:51:31.085Z,9.80
2023-02-17T21:53:59.377Z,11.13
2023-02-17T21:56:27.702Z,7.83
2023-02-17T21:58:57.062Z,4.77
2023-02-17T22:01:32.852Z,7.57
2023-02-17T22:04:02.569Z,7.27
2023-02-17T22:06:32.334Z,5.23
2023-02-17T22:09:00.997Z,4.00
2023-02-17T22:11:31.456Z,4.17
2023-02-17T22:14:01.717Z,4.77
2023-02-17T22:16:33.244Z,4.57
2023-02-17T22:19:02.106Z,4.80
2023-02-17T22:21:30.659Z,5.30
2023-02-17T22:23:59.127Z,5.90
2023-02-17T22:26:28.777Z,4.53
2023-02-17T22:28:56.890Z,3.67
2023-02-17T22:31:26.914Z,5.77
2023-02-17T22:33:57.440Z,6.83
2023-02-17T22:36:27.441Z,6.13
2023-02-17T22:38:56.248Z,3.90
2023-02-17T22:41:26.434Z,7.80
2023-02-17T22:43:55.271Z,9.27
2023-02-17T22:46:25.376Z,4.93
2023-02-17T22:48:54.552Z,6.07
2023-02-17T22:51:25.886Z,8.17
2023-02-17T22:53:54.381Z,7.10
2023-02-17T22:56:24.067Z,7.70
2023-02-17T22:58:56.367Z,6.20
2023-02-17T23:01:26.005Z,11.40
2023-02-17T23:03:57.660Z,7.00
2023-02-17T23:06:29.522Z,9.77
2023-02-17T23:08:58.134Z,10.23
2023-02-17T23:11:45.536Z,8.63
2023-02-17T23:14:14.956Z,8.27
2023-02-17T23:16:43.375Z,10.13
2023-02-17T23:19:13.408Z,4.90
2023-02-17T23:21:47.038Z,7.90
2023-02-17T23:24:17.557Z,7.13
2023-02-17T23:26:47.433Z,9.83
2023-02-17T23:29:16.664Z,5.93
2023-02-17T23:31:45.357Z,6.23
2023-02-17T23:34:15.228Z,5.47
2023-02-17T23:36:45.791Z,5.10
2023-02-17T23:39:14.489Z,7.43
2023-02-17T23:41:42.790Z,6.33
2023-02-17T23:44:13.021Z,9.73
2023-02-17T23:46:42.096Z,10.10
2023-02-17T23:49:13.070Z,8.13
2023-02-17T23:51:41.165Z,8.30
2023-02-17T23:54:10.640Z,6.07
2023-02-17T23:56:39.838Z,4.17
2023-02-17T23:59:08.162Z,10.27
